TAF Text Data
IDs:
Format:
Raw Decoded Include METAR

Data at: 1435 UTC 15 Oct 2018

KELP 151351Z 09013KT 10SM FEW013 BKN025 BKN090 06/00 A3019 RMK AO2 SLP188 CLDS TPG MTNS W-NW T00610000

KELP 151308Z 1513/1612 07012KT P6SM SCT015 BKN030
  TEMPO 1514/1516 BKN015
  FM151600 07012G20KT P6SM SCT015 BKN025
  FM152000 07010KT P6SM VCSH SCT010 BKN035
  FM160300 07007KT P6SM -DZ VCSH SCT010 BKN030